createdAt,value
2023-05-19T00:00:54.621Z,88.98
2023-05-19T00:01:54.701Z,88.73
2023-05-19T00:02:54.663Z,88.36
2023-05-19T00:03:54.676Z,89.03
2023-05-19T00:04:54.580Z,94.46
2023-05-19T00:05:54.653Z,93.94
2023-05-19T00:06:54.583Z,96.18
2023-05-19T00:07:54.574Z,92.54
2023-05-19T00:08:54.607Z,99.93
2023-05-19T00:09:54.599Z,100.40
2023-05-19T00:10:54.583Z,96.88
2023-05-19T00:11:54.591Z,95.20
2023-05-19T00:12:54.575Z,93.31
2023-05-19T00:13:54.583Z,90.24
2023-05-19T00:14:54.597Z,88.65
2023-05-19T00:15:54.593Z,96.53
2023-05-19T00:16:54.576Z,95.63
2023-05-19T00:17:54.618Z,90.10
2023-05-19T00:18:54.607Z,92.23
2023-05-19T00:19:54.578Z,91.84
2023-05-19T00:20:54.553Z,88.45
2023-05-19T00:21:54.579Z,91.80
2023-05-19T00:22:54.547Z,91.75
2023-05-19T00:23:54.587Z,90.71
2023-05-19T00:24:54.557Z,96.01
2023-05-19T00:25:54.549Z,96.94
2023-05-19T00:26:54.589Z,95.00
2023-05-19T00:27:54.564Z,98.78
2023-05-19T00:28:54.558Z,102.76
2023-05-19T00:29:54.547Z,96.43
2023-05-19T00:30:54.556Z,98.13
2023-05-19T00:31:54.580Z,92.60
2023-05-19T00:32:54.607Z,95.39
2023-05-19T00:33:54.555Z,94.14
2023-05-19T00:34:54.589Z,87.24
2023-05-19T00:35:54.548Z,97.61
2023-05-19T00:36:54.540Z,90.33
2023-05-19T00:37:54.553Z,94.99
2023-05-19T00:38:54.544Z,92.94
2023-05-19T00:39:54.550Z,89.10
2023-05-19T00:40:54.576Z,94.66
2023-05-19T00:41:54.558Z,96.50
2023-05-19T00:42:54.531Z,97.57
2023-05-19T00:43:54.555Z,99.54
2023-05-19T00:44:54.543Z,102.02
2023-05-19T00:45:54.555Z,101.42
2023-05-19T00:46:54.635Z,101.55
2023-05-19T00:47:54.587Z,102.80
2023-05-19T00:48:54.541Z,106.48
2023-05-19T00:49:54.559Z,100.09
2023-05-19T00:50:54.546Z,104.85
2023-05-19T00:51:54.541Z,101.99
2023-05-19T00:52:54.548Z,100.40
2023-05-19T00:53:54.539Z,99.67
2023-05-19T00:54:54.563Z,99.44
2023-05-19T00:55:54.526Z,101.57
2023-05-19T00:56:54.544Z,102.65
2023-05-19T00:57:54.521Z,98.22
2023-05-19T00:58:54.547Z,98.37
2023-05-19T00:59:54.547Z,97.17
2023-05-19T01:00:54.556Z,99.58
2023-05-19T01:01:54.537Z,101.93
2023-05-19T01:02:54.664Z,105.04
2023-05-19T01:03:54.628Z,111.75
2023-05-19T01:04:54.525Z,110.45
2023-05-19T01:05:54.536Z,108.62
2023-05-19T01:06:54.520Z,111.27
2023-05-19T01:07:54.537Z,110.07
2023-05-19T01:08:54.513Z,116.02
2023-05-19T01:09:54.555Z,110.88
2023-05-19T01:10:54.524Z,109.88
2023-05-19T01:11:54.545Z,110.49
2023-05-19T01:12:54.543Z,107.49
2023-05-19T01:13:54.538Z,105.61
2023-05-19T01:14:54.527Z,110.41
2023-05-19T01:15:54.553Z,116.46
2023-05-19T01:16:54.580Z,119.80
2023-05-19T01:17:54.635Z,120.98
2023-05-19T01:18:54.645Z,117.50
2023-05-19T01:19:54.526Z,116.97
2023-05-19T01:20:54.541Z,112.00
2023-05-19T01:21:54.534Z,114.71
2023-05-19T01:22:54.500Z,117.35
2023-05-19T01:23:54.505Z,117.94
2023-05-19T01:24:54.529Z,116.92
2023-05-19T01:25:54.544Z,113.75
2023-05-19T01:26:54.531Z,111.11
2023-05-19T01:27:54.500Z,114.97
2023-05-19T01:28:54.549Z,115.14
2023-05-19T01:29:54.522Z,116.10
2023-05-19T01:30:54.521Z,129.28
2023-05-19T01:31:54.576Z,124.97
2023-05-19T01:32:54.508Z,132.23
2023-05-19T01:33:54.536Z,129.44
2023-05-19T01:34:54.568Z,134.97
2023-05-19T01:35:54.599Z,133.90
2023-05-19T01:36:54.643Z,134.67
2023-05-19T01:37:54.714Z,143.27
2023-05-19T01:38:54.767Z,156.15
2023-05-19T01:39:54.780Z,164.20
2023-05-19T01:40:54.863Z,164.10
2023-05-19T01:41:54.925Z,163.35
2023-05-19T01:42:57.289Z,168.10
2023-05-19T01:43:55.218Z,166.26
2023-05-19T01:44:56.056Z,167.57
2023-05-19T01:45:55.348Z,170.11
2023-05-19T01:46:55.381Z,171.97
2023-05-19T01:47:55.451Z,174.30
2023-05-19T01:48:55.458Z,169.61
2023-05-19T01:49:55.551Z,172.13
2023-05-19T01:50:55.592Z,168.95
2023-05-19T01:51:55.654Z,164.15
2023-05-19T01:52:55.682Z,164.53
2023-05-19T01:53:55.791Z,160.44
2023-05-19T01:54:55.812Z,163.90
2023-05-19T01:55:55.886Z,157.92
2023-05-19T01:56:55.927Z,158.45
2023-05-19T01:57:56.013Z,161.82
2023-05-19T01:58:56.028Z,159.64
2023-05-19T01:59:56.075Z,157.44
2023-05-19T02:00:56.183Z,154.93
2023-05-19T02:01:56.181Z,157.09
2023-05-19T02:02:56.311Z,157.92
2023-05-19T02:03:56.299Z,157.90
2023-05-19T02:04:56.350Z,159.51
2023-05-19T02:05:56.399Z,159.58
2023-05-19T02:06:56.438Z,157.23
2023-05-19T02:07:56.495Z,158.84
2023-05-19T02:08:56.526Z,160.85
2023-05-19T02:09:56.560Z,158.37
2023-05-19T02:10:56.602Z,159.30
2023-05-19T02:11:56.681Z,164.04
2023-05-19T02:12:56.726Z,163.04
2023-05-19T02:13:56.741Z,160.83
2023-05-19T02:14:56.784Z,162.56
2023-05-19T02:15:56.878Z,165.32
2023-05-19T02:16:56.865Z,165.88
2023-05-19T02:17:56.911Z,166.16
2023-05-19T02:18:56.969Z,168.76
2023-05-19T02:19:56.983Z,162.89
2023-05-19T02:20:56.992Z,164.35
2023-05-19T02:21:57.057Z,168.99
2023-05-19T02:22:57.068Z,170.74
2023-05-19T02:23:57.108Z,170.00
2023-05-19T02:24:57.145Z,171.27
2023-05-19T02:25:57.211Z,172.14
2023-05-19T02:26:57.250Z,169.73
2023-05-19T02:27:57.275Z,169.55
2023-05-19T02:28:57.292Z,166.94
2023-05-19T02:29:57.325Z,172.65
2023-05-19T02:30:57.370Z,171.38
2023-05-19T02:31:57.449Z,170.52
2023-05-19T02:32:57.492Z,173.53
2023-05-19T02:33:57.470Z,172.47
2023-05-19T02:34:57.489Z,171.21
2023-05-19T02:35:57.537Z,170.10
2023-05-19T02:36:57.536Z,171.39
2023-05-19T02:37:57.565Z,172.23
2023-05-19T02:38:57.606Z,171.30
2023-05-19T02:39:57.649Z,173.59
2023-05-19T02:40:57.690Z,170.61
2023-05-19T02:41:57.711Z,170.86
2023-05-19T02:42:57.724Z,173.33
2023-05-19T02:43:57.764Z,176.34
2023-05-19T02:44:57.770Z,173.92
2023-05-19T02:45:57.860Z,174.76
2023-05-19T02:46:57.849Z,176.84
2023-05-19T02:47:57.935Z,179.22
2023-05-19T02:48:57.914Z,180.73
2023-05-19T02:49:57.929Z,178.13
2023-05-19T02:50:57.987Z,183.64
2023-05-19T02:51:58.015Z,182.41
2023-05-19T02:52:58.018Z,183.83
2023-05-19T02:53:58.065Z,184.92
2023-05-19T02:54:58.082Z,182.87
2023-05-19T02:55:58.114Z,182.27
2023-05-19T02:56:58.134Z,183.94
2023-05-19T02:57:58.152Z,187.12
2023-05-19T02:58:58.208Z,182.90
2023-05-19T02:59:58.233Z,179.99
2023-05-19T03:00:58.220Z,179.86
2023-05-19T03:01:58.316Z,183.06
2023-05-19T03:02:58.366Z,180.86
2023-05-19T03:03:58.386Z,178.98
2023-05-19T03:04:58.336Z,181.77
2023-05-19T03:05:58.327Z,178.55
2023-05-19T03:06:58.351Z,177.68
2023-05-19T03:07:58.377Z,177.30
2023-05-19T03:08:58.415Z,179.80
2023-05-19T03:09:58.421Z,178.84
2023-05-19T03:10:58.423Z,181.69
2023-05-19T03:11:58.445Z,182.67
2023-05-19T03:12:58.467Z,183.23
2023-05-19T03:13:58.489Z,177.59
2023-05-19T03:14:58.536Z,181.25
2023-05-19T03:15:58.607Z,181.81
2023-05-19T03:16:58.603Z,182.53
2023-05-19T03:17:58.610Z,179.46
2023-05-19T03:18:58.598Z,180.06
2023-05-19T03:19:58.598Z,181.98
2023-05-19T03:20:58.631Z,178.97
2023-05-19T03:21:58.639Z,178.95
2023-05-19T03:22:58.712Z,178.48
2023-05-19T03:23:58.709Z,180.25
2023-05-19T03:24:58.725Z,182.60
2023-05-19T03:25:58.700Z,182.80
2023-05-19T03:26:58.746Z,179.51
2023-05-19T03:27:58.760Z,180.20
2023-05-19T03:28:58.746Z,179.80
2023-05-19T03:29:58.769Z,178.14
2023-05-19T03:30:58.814Z,178.17
2023-05-19T03:31:58.939Z,178.48
2023-05-19T03:32:58.902Z,175.73
2023-05-19T03:33:58.852Z,174.58
2023-05-19T03:34:58.881Z,174.48
2023-05-19T03:35:58.889Z,174.78
2023-05-19T03:36:58.889Z,173.93
2023-05-19T03:37:58.919Z,181.88
2023-05-19T03:38:58.910Z,175.37
2023-05-19T03:39:58.942Z,176.36
2023-05-19T03:40:58.958Z,177.55
2023-05-19T03:41:58.995Z,172.71
2023-05-19T03:42:58.975Z,174.48
2023-05-19T03:43:59.065Z,178.54
2023-05-19T03:44:59.022Z,175.28
2023-05-19T03:45:59.038Z,175.49
2023-05-19T03:46:59.060Z,174.11
2023-05-19T03:47:59.089Z,173.41
2023-05-19T03:48:59.071Z,173.67
2023-05-19T03:49:59.092Z,175.72
2023-05-19T03:50:59.096Z,178.24
2023-05-19T03:51:59.084Z,174.21
2023-05-19T03:52:59.153Z,178.61
2023-05-19T03:53:59.493Z,174.63
2023-05-19T03:54:59.550Z,176.06
2023-05-19T03:55:59.163Z,177.95
2023-05-19T03:56:59.161Z,178.28
2023-05-19T03:57:59.158Z,179.80
2023-05-19T03:58:59.187Z,179.85
2023-05-19T03:59:59.184Z,177.51
2023-05-19T04:00:59.200Z,177.94
2023-05-19T04:01:59.228Z,177.23
2023-05-19T04:02:59.274Z,176.85
2023-05-19T04:03:59.220Z,176.27
2023-05-19T04:04:59.313Z,172.95
2023-05-19T04:05:59.265Z,175.62
2023-05-19T04:06:59.238Z,179.85
2023-05-19T04:07:59.257Z,178.60
2023-05-19T04:08:59.279Z,176.78
2023-05-19T04:09:59.305Z,177.45
2023-05-19T04:10:59.296Z,174.78
2023-05-19T04:11:59.308Z,178.70
2023-05-19T04:12:59.309Z,174.91
2023-05-19T04:13:59.314Z,176.34
2023-05-19T04:14:59.339Z,180.04
2023-05-19T04:15:59.378Z,177.60
2023-05-19T04:16:59.333Z,181.24
2023-05-19T04:17:59.365Z,175.82
2023-05-19T04:18:59.385Z,178.39
2023-05-19T04:19:59.362Z,179.85
2023-05-19T04:20:59.394Z,182.34
2023-05-19T04:21:59.398Z,181.69
2023-05-19T04:22:59.417Z,180.29
2023-05-19T04:23:59.417Z,179.01
2023-05-19T04:24:59.436Z,182.87
2023-05-19T04:25:59.449Z,177.89
2023-05-19T04:26:59.451Z,179.24
2023-05-19T04:27:59.466Z,181.98
2023-05-19T04:28:59.465Z,180.24
2023-05-19T04:29:59.468Z,181.78
2023-05-19T04:30:59.502Z,182.16
2023-05-19T04:31:59.469Z,183.03
2023-05-19T04:32:59.521Z,182.27
2023-05-19T04:33:59.493Z,184.30
2023-05-19T04:34:59.496Z,180.57
2023-05-19T04:35:59.507Z,180.27
2023-05-19T04:36:59.511Z,185.99
2023-05-19T04:37:59.541Z,188.10
2023-05-19T04:38:59.548Z,183.08
2023-05-19T04:39:59.560Z,183.93
2023-05-19T04:40:59.581Z,183.11
2023-05-19T04:41:59.553Z,178.97
2023-05-19T04:42:59.592Z,184.13
2023-05-19T04:43:59.608Z,184.05
2023-05-19T04:44:59.629Z,183.28
2023-05-19T04:45:59.598Z,181.55
2023-05-19T04:46:59.662Z,179.27
2023-05-19T04:47:59.706Z,178.36
2023-05-19T04:48:59.636Z,178.20
2023-05-19T04:50:00.733Z,173.84
2023-05-19T04:50:59.710Z,177.89
2023-05-19T04:51:59.685Z,177.83
2023-05-19T04:52:59.723Z,179.18
2023-05-19T04:53:59.706Z,180.02
2023-05-19T04:54:59.700Z,178.08
2023-05-19T04:55:59.733Z,173.01
2023-05-19T04:56:59.755Z,176.02
2023-05-19T04:57:59.770Z,170.53
2023-05-19T04:58:59.756Z,174.70
2023-05-19T04:59:59.769Z,175.19
2023-05-19T05:01:09.158Z,177.63
2023-05-19T05:01:59.857Z,178.08
2023-05-19T05:02:59.882Z,178.70
2023-05-19T05:03:59.828Z,178.10
2023-05-19T05:04:59.828Z,178.70
2023-05-19T05:05:59.802Z,177.49
2023-05-19T05:06:59.742Z,176.24
2023-05-19T05:07:59.792Z,175.92
2023-05-19T05:08:59.753Z,179.62
2023-05-19T05:09:59.745Z,173.86
2023-05-19T05:10:59.729Z,173.95
2023-05-19T05:11:59.754Z,174.38
2023-05-19T05:12:59.706Z,172.69
2023-05-19T05:13:59.730Z,170.07
2023-05-19T05:14:59.685Z,171.79
2023-05-19T05:15:59.704Z,171.22
2023-05-19T05:16:59.675Z,171.60
2023-05-19T05:17:59.745Z,174.05
2023-05-19T05:18:59.711Z,173.87
2023-05-19T05:19:59.658Z,172.65
2023-05-19T05:20:59.664Z,171.72
2023-05-19T05:21:59.682Z,177.02
2023-05-19T05:22:59.697Z,175.74
2023-05-19T05:23:59.644Z,173.16
2023-05-19T05:24:59.621Z,175.38
2023-05-19T05:25:59.662Z,171.83
2023-05-19T05:26:59.648Z,171.89
2023-05-19T05:27:59.614Z,167.19
2023-05-19T05:28:59.617Z,167.61
2023-05-19T05:29:59.626Z,166.97
2023-05-19T05:30:59.594Z,170.28
2023-05-19T05:31:59.666Z,168.91
2023-05-19T05:32:59.652Z,167.21
2023-05-19T05:33:59.590Z,167.33
2023-05-19T05:34:59.570Z,167.31
2023-05-19T05:35:59.535Z,164.43
2023-05-19T05:37:00.207Z,164.56
2023-05-19T05:37:59.551Z,167.51
2023-05-19T05:38:59.529Z,163.70
2023-05-19T05:39:59.530Z,161.32
2023-05-19T05:40:59.530Z,160.74
2023-05-19T05:41:59.506Z,155.59
2023-05-19T05:42:59.517Z,155.16
2023-05-19T05:43:59.512Z,156.99
2023-05-19T05:44:59.495Z,152.37
2023-05-19T05:46:08.837Z,149.93
2023-05-19T05:46:59.482Z,150.44
2023-05-19T05:47:59.551Z,151.73
2023-05-19T05:48:59.486Z,151.97
2023-05-19T05:49:59.446Z,154.25
2023-05-19T05:50:59.517Z,157.69
2023-05-19T05:52:59.552Z,154.38
2023-05-19T05:53:59.443Z,154.04
2023-05-19T05:54:59.456Z,155.61
2023-05-19T05:55:59.443Z,154.86
2023-05-19T05:56:59.429Z,155.51
2023-05-19T05:57:59.442Z,150.53
2023-05-19T05:58:59.420Z,152.58
2023-05-19T05:59:59.379Z,152.50
2023-05-19T06:00:59.395Z,156.50
2023-05-19T06:01:59.396Z,155.97
2023-05-19T06:02:59.607Z,155.39
2023-05-19T06:03:59.384Z,152.26
2023-05-19T06:04:59.426Z,157.79
2023-05-19T06:05:59.441Z,152.46
2023-05-19T06:06:59.359Z,149.42
2023-05-19T06:07:59.373Z,153.27
2023-05-19T06:08:59.355Z,153.42
2023-05-19T06:09:59.354Z,153.94
2023-05-19T06:10:59.328Z,150.52
2023-05-19T06:11:59.315Z,157.37
2023-05-19T06:12:59.311Z,156.58
2023-05-19T06:13:59.326Z,159.37
2023-05-19T06:14:59.343Z,157.59
2023-05-19T06:16:01.720Z,158.52
2023-05-19T06:16:59.292Z,158.79
2023-05-19T06:17:59.487Z,159.06
2023-05-19T06:18:59.445Z,160.10
2023-05-19T06:19:59.284Z,160.41
2023-05-19T06:20:59.246Z,163.24
2023-05-19T06:21:59.276Z,168.92
2023-05-19T06:22:59.263Z,161.71
2023-05-19T06:23:59.226Z,159.51
2023-05-19T06:24:59.276Z,163.24
2023-05-19T06:25:59.254Z,145.41
2023-05-19T06:26:59.231Z,153.46
2023-05-19T06:27:59.187Z,159.88
2023-05-19T06:28:59.233Z,162.70
2023-05-19T06:29:59.227Z,168.58
2023-05-19T06:30:59.251Z,168.47
2023-05-19T06:31:59.188Z,173.46
2023-05-19T06:32:59.191Z,174.01
2023-05-19T06:33:59.168Z,171.50
2023-05-19T06:34:59.159Z,173.09
2023-05-19T06:35:59.173Z,176.62
2023-05-19T06:36:59.154Z,175.39
2023-05-19T06:37:59.162Z,174.30
2023-05-19T06:39:01.335Z,174.02
2023-05-19T06:39:59.098Z,174.24
2023-05-19T06:40:59.094Z,174.36
2023-05-19T06:41:59.131Z,176.84
2023-05-19T06:42:59.113Z,174.79
2023-05-19T06:43:59.104Z,172.18
2023-05-19T06:44:59.110Z,170.88
2023-05-19T06:45:59.100Z,165.32
2023-05-19T06:46:59.137Z,167.90
2023-05-19T06:47:59.130Z,156.01
2023-05-19T06:48:59.046Z,160.06
2023-05-19T06:49:59.080Z,163.45
2023-05-19T06:50:59.046Z,169.16
2023-05-19T06:51:59.072Z,167.00
2023-05-19T06:52:59.039Z,171.13
2023-05-19T06:53:59.050Z,170.77
2023-05-19T06:54:59.005Z,164.26
2023-05-19T06:56:00.167Z,165.30
2023-05-19T06:56:58.978Z,162.79
2023-05-19T06:57:58.990Z,153.51
2023-05-19T06:58:58.964Z,150.96
2023-05-19T06:59:58.979Z,156.26
2023-05-19T07:00:58.986Z,157.67
2023-05-19T07:01:59.079Z,165.38
2023-05-19T07:02:59.073Z,160.41
2023-05-19T07:03:59.099Z,164.21
2023-05-19T07:04:58.952Z,156.01
2023-05-19T07:05:58.938Z,139.69
2023-05-19T07:06:58.942Z,136.37
2023-05-19T07:07:58.927Z,147.28
2023-05-19T07:08:58.945Z,148.58
2023-05-19T07:09:58.900Z,155.23
2023-05-19T07:10:58.897Z,151.27
2023-05-19T07:11:58.872Z,151.95
2023-05-19T07:12:58.905Z,149.23
2023-05-19T07:13:58.951Z,143.89
2023-05-19T07:14:58.872Z,148.72
2023-05-19T07:15:58.869Z,145.58
2023-05-19T07:16:58.853Z,146.53
2023-05-19T07:17:58.895Z,142.47
2023-05-19T07:18:58.994Z,144.99
2023-05-19T07:19:58.994Z,140.03
2023-05-19T07:20:59.085Z,146.72
2023-05-19T07:21:59.079Z,145.93
2023-05-19T07:22:59.114Z,143.20
2023-05-19T07:23:59.165Z,130.78
2023-05-19T07:24:59.162Z,130.49
2023-05-19T07:25:59.237Z,139.20
2023-05-19T07:26:59.292Z,141.86
2023-05-19T07:27:59.293Z,149.10
2023-05-19T07:28:59.346Z,142.14
2023-05-19T07:29:59.406Z,145.51
2023-05-19T07:30:59.419Z,131.59
2023-05-19T07:31:59.571Z,112.56
2023-05-19T07:32:59.499Z,106.64
2023-05-19T07:33:59.535Z,107.82
2023-05-19T07:34:59.580Z,111.06
2023-05-19T07:35:59.607Z,128.28
2023-05-19T07:36:59.689Z,132.54
2023-05-19T07:37:59.723Z,139.60
2023-05-19T07:38:59.752Z,144.94
2023-05-19T07:39:59.831Z,141.31
2023-05-19T07:40:59.868Z,137.67
2023-05-19T07:41:59.903Z,138.88
2023-05-19T07:42:59.906Z,141.85
2023-05-19T07:43:59.937Z,141.61
2023-05-19T07:45:00.008Z,142.10
2023-05-19T07:46:00.051Z,139.55
2023-05-19T07:47:00.068Z,130.05
2023-05-19T07:48:00.230Z,130.09
2023-05-19T07:49:00.153Z,112.86
2023-05-19T07:50:00.248Z,105.61
2023-05-19T07:51:00.216Z,106.68
2023-05-19T07:52:00.268Z,97.22
2023-05-19T07:53:00.332Z,104.88
2023-05-19T07:54:00.351Z,107.13
2023-05-19T07:55:01.275Z,108.81
2023-05-19T07:56:00.448Z,104.43
2023-05-19T07:57:00.515Z,92.58
2023-05-19T07:58:00.492Z,94.34
2023-05-19T07:59:00.515Z,105.19
2023-05-19T08:00:00.597Z,116.46
2023-05-19T08:01:00.641Z,131.74
2023-05-19T08:02:00.711Z,136.03
2023-05-19T08:03:00.778Z,126.75
2023-05-19T08:04:00.852Z,124.03
2023-05-19T08:05:00.809Z,125.54
2023-05-19T08:06:00.856Z,116.01
2023-05-19T08:07:00.915Z,104.17
2023-05-19T08:08:00.934Z,108.94
2023-05-19T08:09:00.958Z,113.34
2023-05-19T08:10:01.017Z,124.53
2023-05-19T08:11:01.050Z,131.62
2023-05-19T08:12:01.126Z,132.90
2023-05-19T08:13:01.201Z,128.85
2023-05-19T08:14:01.171Z,128.39
2023-05-19T08:15:01.750Z,131.93
2023-05-19T08:16:01.325Z,126.75
2023-05-19T08:17:01.327Z,129.70
2023-05-19T08:18:01.421Z,128.95
2023-05-19T08:19:01.469Z,127.98
2023-05-19T08:20:01.478Z,126.50
2023-05-19T08:21:01.508Z,109.13
2023-05-19T08:22:01.512Z,107.17
2023-05-19T08:23:01.545Z,106.61
2023-05-19T08:24:01.672Z,90.52
2023-05-19T08:25:01.650Z,94.07
2023-05-19T08:26:01.699Z,100.66
2023-05-19T08:27:01.744Z,84.94
2023-05-19T08:28:01.795Z,81.21
2023-05-19T08:29:01.816Z,78.06
2023-05-19T08:30:01.870Z,77.59
2023-05-19T08:31:02.006Z,85.07
2023-05-19T08:32:01.992Z,93.43
2023-05-19T08:33:02.033Z,99.68
2023-05-19T08:34:02.053Z,103.40
2023-05-19T08:35:02.065Z,103.19
2023-05-19T08:36:02.113Z,116.06
2023-05-19T08:37:02.158Z,117.11
2023-05-19T08:38:02.200Z,118.12
2023-05-19T08:39:02.243Z,114.63
2023-05-19T08:40:02.289Z,87.17
2023-05-19T08:41:02.338Z,75.61
2023-05-19T08:42:02.359Z,89.35
2023-05-19T08:43:02.399Z,91.87
2023-05-19T08:44:02.429Z,91.07
2023-05-19T08:45:02.516Z,98.44
2023-05-19T08:46:02.489Z,96.44
2023-05-19T08:47:02.581Z,99.33
2023-05-19T08:48:02.646Z,98.49
2023-05-19T08:49:02.615Z,102.54
2023-05-19T08:50:02.870Z,112.45
2023-05-19T08:51:02.732Z,99.28
2023-05-19T08:52:02.730Z,100.24
2023-05-19T08:53:02.800Z,102.45
2023-05-19T08:54:02.802Z,103.43
2023-05-19T08:55:02.867Z,104.72
2023-05-19T08:56:02.897Z,105.82
2023-05-19T08:57:02.925Z,109.96
2023-05-19T08:58:02.979Z,115.04
2023-05-19T08:59:02.982Z,113.06
2023-05-19T09:00:03.029Z,116.06
2023-05-19T09:01:03.109Z,112.58
2023-05-19T09:02:03.110Z,110.48
2023-05-19T09:04:03.187Z,109.79
2023-05-19T09:05:03.266Z,102.54
2023-05-19T09:06:03.165Z,104.36
2023-05-19T09:07:03.088Z,104.75
2023-05-19T09:08:03.135Z,104.36
2023-05-19T09:09:03.118Z,97.92
2023-05-19T09:10:03.091Z,104.76
2023-05-19T09:11:03.119Z,105.98
2023-05-19T09:12:03.091Z,106.24
2023-05-19T09:13:03.098Z,108.27
2023-05-19T09:14:03.052Z,109.41
2023-05-19T09:15:03.065Z,115.23
2023-05-19T09:16:03.074Z,114.99
2023-05-19T09:17:03.131Z,114.83
2023-05-19T09:18:03.051Z,108.10
2023-05-19T09:19:03.062Z,106.05
2023-05-19T09:20:03.044Z,107.47
2023-05-19T09:21:03.295Z,102.29
2023-05-19T09:22:03.031Z,101.60
2023-05-19T09:23:03.007Z,106.71
2023-05-19T09:24:02.983Z,106.62
2023-05-19T09:25:03.010Z,106.88
2023-05-19T09:26:03.005Z,112.59
2023-05-19T09:27:02.947Z,117.01
2023-05-19T09:28:02.982Z,111.01
2023-05-19T09:29:02.944Z,110.22
2023-05-19T09:30:03.008Z,108.71
2023-05-19T09:31:02.953Z,113.62
2023-05-19T09:32:02.997Z,107.14
2023-05-19T09:33:02.995Z,110.17
2023-05-19T09:34:02.924Z,111.76
2023-05-19T09:35:02.924Z,109.28
2023-05-19T09:36:02.913Z,117.06
2023-05-19T09:37:02.909Z,116.16
2023-05-19T09:38:02.962Z,114.89
2023-05-19T09:39:02.907Z,113.86
2023-05-19T09:40:02.909Z,116.07
2023-05-19T09:41:02.887Z,107.78
2023-05-19T09:42:02.878Z,112.73
2023-05-19T09:43:02.882Z,115.60
2023-05-19T09:44:03.863Z,107.00
2023-05-19T09:45:02.862Z,106.79
2023-05-19T09:46:02.847Z,110.75
2023-05-19T09:47:02.839Z,106.45
2023-05-19T09:48:02.873Z,106.65
2023-05-19T09:49:02.816Z,104.36
2023-05-19T09:50:02.827Z,107.64
2023-05-19T09:51:02.834Z,106.46
2023-05-19T09:52:02.857Z,110.10
2023-05-19T09:53:02.780Z,101.71
2023-05-19T09:54:02.770Z,98.03
2023-05-19T09:55:02.749Z,93.83
2023-05-19T09:56:02.749Z,94.87
2023-05-19T09:57:02.760Z,92.37
2023-05-19T09:58:02.742Z,91.96
2023-05-19T09:59:02.725Z,88.49
2023-05-19T10:00:02.739Z,91.47
2023-05-19T10:01:02.795Z,90.83
2023-05-19T10:02:03.144Z,94.41
2023-05-19T10:03:02.783Z,101.32
2023-05-19T10:04:03.865Z,97.99
2023-05-19T10:05:02.761Z,104.58
2023-05-19T10:06:02.698Z,99.56
2023-05-19T10:07:02.684Z,88.25
2023-05-19T10:08:02.673Z,77.03
2023-05-19T10:09:02.687Z,80.90
2023-05-19T10:10:02.665Z,85.57
2023-05-19T10:11:02.669Z,80.60
2023-05-19T10:12:02.672Z,85.52
2023-05-19T10:13:02.626Z,86.25
2023-05-19T10:14:02.629Z,77.12
2023-05-19T10:15:02.638Z,71.57
2023-05-19T10:16:02.832Z,65.35
2023-05-19T10:17:02.759Z,66.56
2023-05-19T10:18:02.678Z,65.97
2023-05-19T10:19:02.747Z,70.21
2023-05-19T10:20:02.580Z,72.37
2023-05-19T10:21:02.646Z,79.23
2023-05-19T10:22:02.556Z,85.51
2023-05-19T10:23:02.555Z,88.27
2023-05-19T10:24:02.595Z,86.70
2023-05-19T10:25:02.570Z,82.37
2023-05-19T10:26:02.551Z,84.64
2023-05-19T10:27:02.595Z,76.96
2023-05-19T10:28:02.567Z,78.13
2023-05-19T10:29:02.584Z,79.00
2023-05-19T10:30:02.565Z,71.91
2023-05-19T10:31:02.534Z,71.55
2023-05-19T10:32:02.544Z,71.16
2023-05-19T10:33:02.533Z,76.03
2023-05-19T10:34:02.520Z,72.55
2023-05-19T10:35:02.487Z,72.87
2023-05-19T10:36:02.484Z,73.29
2023-05-19T10:37:02.495Z,75.73
2023-05-19T10:38:02.512Z,77.41
2023-05-19T10:39:02.466Z,78.99
2023-05-19T10:40:02.459Z,79.92
2023-05-19T10:41:02.416Z,84.09
2023-05-19T10:42:02.467Z,87.27
2023-05-19T10:43:02.424Z,86.12
2023-05-19T10:44:02.406Z,84.91
2023-05-19T10:45:02.426Z,85.45
2023-05-19T10:46:02.373Z,87.67
2023-05-19T10:47:02.585Z,92.62
2023-05-19T10:48:02.419Z,97.09
2023-05-19T10:49:02.358Z,95.98
2023-05-19T10:50:02.383Z,96.84
2023-05-19T10:51:02.369Z,91.20
2023-05-19T10:52:02.367Z,90.78
2023-05-19T10:53:02.366Z,84.79
2023-05-19T10:54:02.393Z,82.29
2023-05-19T10:55:02.350Z,81.83
2023-05-19T10:56:02.355Z,77.00
2023-05-19T10:57:02.329Z,62.54
2023-05-19T10:58:02.393Z,60.15
2023-05-19T10:59:02.332Z,61.04
2023-05-19T11:00:02.312Z,59.07
2023-05-19T11:01:02.359Z,62.12
2023-05-19T11:02:02.297Z,68.78
2023-05-19T11:03:02.356Z,70.36
2023-05-19T11:04:02.352Z,72.87
2023-05-19T11:05:02.330Z,72.13
2023-05-19T11:06:02.266Z,66.94
2023-05-19T11:07:02.284Z,75.36
2023-05-19T11:08:02.487Z,80.84
2023-05-19T11:09:02.367Z,86.74
2023-05-19T11:10:02.261Z,80.66
2023-05-19T11:11:02.883Z,82.46
2023-05-19T11:12:02.267Z,86.88
2023-05-19T11:13:02.225Z,92.68
2023-05-19T11:14:02.231Z,90.13
2023-05-19T11:15:02.242Z,96.30
2023-05-19T11:16:02.229Z,89.77
2023-05-19T11:17:02.535Z,78.44
2023-05-19T11:18:02.295Z,78.15
2023-05-19T11:19:02.222Z,87.72
2023-05-19T11:20:02.209Z,85.45
2023-05-19T11:21:02.330Z,89.57
2023-05-19T11:22:02.202Z,87.53
2023-05-19T11:23:02.225Z,91.51
2023-05-19T11:24:02.298Z,89.52
2023-05-19T11:25:02.177Z,89.22
2023-05-19T11:26:02.141Z,83.39
2023-05-19T11:27:02.176Z,88.56
2023-05-19T11:28:02.127Z,88.20
2023-05-19T11:29:02.112Z,90.80
2023-05-19T11:30:02.419Z,90.01
2023-05-19T11:31:02.116Z,88.03
2023-05-19T11:32:02.157Z,87.19
2023-05-19T11:33:02.188Z,90.96
2023-05-19T11:34:02.133Z,95.93
2023-05-19T11:35:02.129Z,101.92
2023-05-19T11:36:02.113Z,100.21
2023-05-19T11:37:02.122Z,99.73
2023-05-19T11:38:02.091Z,99.34
2023-05-19T11:39:02.068Z,97.61
2023-05-19T11:40:02.075Z,100.94
2023-05-19T11:41:02.037Z,104.59
2023-05-19T11:42:02.022Z,101.10
2023-05-19T11:43:02.143Z,105.33
2023-05-19T11:44:02.063Z,105.57
2023-05-19T11:45:02.062Z,102.43
2023-05-19T11:46:02.206Z,104.72
2023-05-19T11:47:02.006Z,110.42
2023-05-19T11:48:03.299Z,113.85
2023-05-19T11:49:01.989Z,119.19
2023-05-19T11:50:02.032Z,118.83
2023-05-19T11:51:01.997Z,112.47
2023-05-19T11:52:01.970Z,105.01
2023-05-19T11:53:02.097Z,101.12
2023-05-19T11:54:01.995Z,100.79
2023-05-19T11:55:01.961Z,96.48
2023-05-19T11:56:01.928Z,90.01
2023-05-19T11:57:01.942Z,95.09
2023-05-19T11:58:04.460Z,101.64
2023-05-19T11:59:01.964Z,101.89
2023-05-19T12:00:01.969Z,102.40
2023-05-19T12:01:01.933Z,103.23
2023-05-19T12:02:01.924Z,104.39
2023-05-19T12:03:02.021Z,112.77
2023-05-19T12:04:01.939Z,113.02
2023-05-19T12:05:01.960Z,113.12
2023-05-19T12:06:01.935Z,116.75
2023-05-19T12:07:01.900Z,117.60
2023-05-19T12:08:01.861Z,113.31
2023-05-19T12:09:01.874Z,108.64
2023-05-19T12:10:01.850Z,108.99
2023-05-19T12:11:01.866Z,111.85
2023-05-19T12:12:01.881Z,97.55
2023-05-19T12:13:01.842Z,85.77
2023-05-19T12:14:01.851Z,77.62
2023-05-19T12:15:01.825Z,74.65
2023-05-19T12:16:01.886Z,73.04
2023-05-19T12:17:01.809Z,77.32
2023-05-19T12:18:01.883Z,72.64
2023-05-19T12:19:01.852Z,69.71
2023-05-19T12:20:01.808Z,76.44
2023-05-19T12:21:01.786Z,82.94
2023-05-19T12:22:03.401Z,87.67
2023-05-19T12:23:01.768Z,93.85
2023-05-19T12:24:01.799Z,86.41
2023-05-19T12:25:01.763Z,86.72
2023-05-19T12:26:01.763Z,78.10
2023-05-19T12:27:01.778Z,66.48
2023-05-19T12:28:01.748Z,66.54
2023-05-19T12:29:01.756Z,70.07
2023-05-19T12:30:01.750Z,71.27
2023-05-19T12:31:01.735Z,75.39
2023-05-19T12:32:01.834Z,79.24
2023-05-19T12:33:01.801Z,81.56
2023-05-19T12:34:01.703Z,81.52
2023-05-19T12:35:01.677Z,79.08
2023-05-19T12:36:01.723Z,84.17
2023-05-19T12:37:01.696Z,86.26